Saint Anne, Illinois
Current Conditions -  °F | °C
As of 6:35 PM on Monday 24 Nov 2014 (Local Time) from KIKK Reporting Station
Overcast Overcast  
Wind Chill: 17°   Ceiling: 1500
Heat Index: 30°   Visibility: 10mi
Dew Point: 27°   Wind: 23mph
Humidity: 88%   Direction: 250°WSW
Pressure: 29.76"   Gusts: 30mph
Location:  41.03°N, 87.71°W
Report Text: KIKK 250035Z AUTO 25020G26KT 10SM BKN015 OVC021 M01/M03 A2976 RMK AO2 T10101028
Loading
Personal Weather Stations






























Interactive Weather Map New forecast layout! Learn more

10-Day Weather Forecast

Advertisements
Track Severe Weather on mobile